createdAt,value
2023-05-25T00:02:35.770Z,71.90
2023-05-25T00:05:39.822Z,71.39
2023-05-25T00:08:42.975Z,71.46
2023-05-25T00:11:46.253Z,71.49
2023-05-25T00:14:49.707Z,71.51
2023-05-25T00:17:54.883Z,72.17
2023-05-25T00:20:58.580Z,72.56
2023-05-25T00:24:01.629Z,72.19
2023-05-25T00:27:05.055Z,72.33
2023-05-25T00:30:08.713Z,72.84
2023-05-25T00:33:13.342Z,72.43
2023-05-25T00:36:16.761Z,72.70
2023-05-25T00:39:20.645Z,74.24
2023-05-25T00:42:24.291Z,74.33
2023-05-25T00:45:27.368Z,74.67
2023-05-25T00:48:30.535Z,74.14
2023-05-25T00:51:33.880Z,74.99
2023-05-25T00:54:37.750Z,75.75
2023-05-25T00:57:46.176Z,75.17
2023-05-25T01:00:51.162Z,75.41
2023-05-25T01:03:56.597Z,75.64
2023-05-25T01:07:01.361Z,74.90
2023-05-25T01:10:09.956Z,74.93
2023-05-25T01:13:14.651Z,75.38
2023-05-25T01:16:17.790Z,75.30
2023-05-25T01:19:22.095Z,75.48
2023-05-25T01:22:48.117Z,75.19
2023-05-25T01:25:58.306Z,75.14
2023-05-25T01:29:02.573Z,75.59
2023-05-25T01:32:06.606Z,75.77
2023-05-25T01:35:12.071Z,75.86
2023-05-25T01:38:17.997Z,76.01
2023-05-25T01:41:21.760Z,76.30
2023-05-25T01:44:26.575Z,75.59
2023-05-25T01:47:38.911Z,76.50
2023-05-25T01:50:53.771Z,76.42
2023-05-25T01:54:06.889Z,75.73
2023-05-25T01:57:13.894Z,76.46
2023-05-25T02:00:21.507Z,75.24
2023-05-25T02:03:25.205Z,74.36
2023-05-25T02:06:28.426Z,74.90
2023-05-25T02:09:31.512Z,75.53
2023-05-25T02:12:35.117Z,75.92
2023-05-25T02:15:39.553Z,75.61
2023-05-25T02:18:44.928Z,75.76
2023-05-25T02:21:48.167Z,76.55
2023-05-25T02:24:51.519Z,75.78
2023-05-25T02:27:54.910Z,75.80
2023-05-25T02:30:58.111Z,75.75
2023-05-25T02:34:02.027Z,74.81
2023-05-25T02:37:05.432Z,74.98
2023-05-25T02:40:10.983Z,75.31
2023-05-25T02:43:14.468Z,75.58
2023-05-25T02:46:18.197Z,76.23
2023-05-25T02:49:21.638Z,75.79
2023-05-25T02:52:25.917Z,76.91
2023-05-25T02:55:29.087Z,75.43
2023-05-25T02:58:32.632Z,76.57
2023-05-25T03:01:46.756Z,75.82
2023-05-25T03:04:53.935Z,76.32
2023-05-25T03:07:57.994Z,76.24
2023-05-25T03:11:01.232Z,75.70
2023-05-25T03:14:04.719Z,76.92
2023-05-25T03:17:09.831Z,75.80
2023-05-25T03:20:15.746Z,75.80
2023-05-25T03:23:22.384Z,76.44
2023-05-25T03:26:27.682Z,76.36
2023-05-25T03:29:30.908Z,76.71
2023-05-25T03:32:34.322Z,76.65
2023-05-25T03:35:37.786Z,75.99
2023-05-25T03:38:42.805Z,76.16
2023-05-25T03:41:46.160Z,76.24
2023-05-25T03:44:49.616Z,75.88
2023-05-25T03:47:52.962Z,75.81
2023-05-25T03:50:56.866Z,75.89
2023-05-25T03:53:59.898Z,75.80
2023-05-25T03:57:03.881Z,75.59
2023-05-25T04:00:11.185Z,76.00
2023-05-25T04:03:19.326Z,75.12
2023-05-25T04:06:25.534Z,75.98
2023-05-25T04:09:28.631Z,74.36
2023-05-25T04:12:32.490Z,72.79
2023-05-25T04:15:36.658Z,74.83
2023-05-25T04:18:50.430Z,74.39
2023-05-25T04:21:53.553Z,73.36
2023-05-25T04:24:56.924Z,72.96
2023-05-25T04:28:00.734Z,73.12
2023-05-25T04:31:27.331Z,73.80
2023-05-25T04:34:50.294Z,72.72
2023-05-25T04:37:58.117Z,72.11
2023-05-25T04:41:04.016Z,71.91
2023-05-25T04:44:10.077Z,71.66
2023-05-25T04:47:17.786Z,72.14
2023-05-25T04:50:21.219Z,70.78
2023-05-25T04:53:24.288Z,70.68
2023-05-25T04:56:27.647Z,71.13
2023-05-25T04:59:30.894Z,70.95
2023-05-25T05:02:34.298Z,71.65
2023-05-25T05:05:37.288Z,70.73
2023-05-25T05:08:44.566Z,70.93
2023-05-25T05:11:47.844Z,70.26
2023-05-25T05:14:54.401Z,71.14
2023-05-25T05:17:57.885Z,69.56
2023-05-25T05:21:01.327Z,69.65
2023-05-25T05:24:04.623Z,69.32
2023-05-25T05:27:08.726Z,69.34
2023-05-25T05:30:22.478Z,69.57
2023-05-25T05:33:26.299Z,68.10
2023-05-25T05:36:29.756Z,68.54
2023-05-25T05:39:33.446Z,68.00
2023-05-25T05:42:36.532Z,67.40
2023-05-25T05:45:39.606Z,66.15
2023-05-25T05:48:44.055Z,66.24
2023-05-25T05:51:47.394Z,64.30
2023-05-25T05:54:50.630Z,63.76
2023-05-25T05:57:54.213Z,63.92
2023-05-25T06:01:00.167Z,64.02
2023-05-25T06:04:05.796Z,62.87
2023-05-25T06:07:08.782Z,62.56
2023-05-25T06:10:12.698Z,61.65
2023-05-25T06:13:15.991Z,62.78
2023-05-25T06:16:19.790Z,61.22
2023-05-25T06:19:23.672Z,61.02
2023-05-25T06:22:28.940Z,60.83
2023-05-25T06:25:32.766Z,61.31
2023-05-25T06:28:35.929Z,61.46
2023-05-25T06:31:39.284Z,60.58
2023-05-25T06:34:43.181Z,61.08
2023-05-25T06:37:50.423Z,61.22
2023-05-25T06:40:55.784Z,60.47
2023-05-25T06:43:58.830Z,60.47
2023-05-25T06:47:07.163Z,60.06
2023-05-25T06:50:10.956Z,59.20
2023-05-25T06:53:14.568Z,60.87
2023-05-25T06:56:17.898Z,60.41
2023-05-25T06:59:21.183Z,58.82
2023-05-25T07:02:24.469Z,59.52
2023-05-25T07:05:27.654Z,59.46
2023-05-25T07:08:31.582Z,57.68
2023-05-25T07:11:34.917Z,58.57
2023-05-25T07:14:38.674Z,58.74
2023-05-25T07:17:41.800Z,58.66
2023-05-25T07:20:45.526Z,58.41
2023-05-25T07:23:48.950Z,57.15
2023-05-25T07:26:52.483Z,59.34
2023-05-25T07:29:55.952Z,60.48
2023-05-25T07:32:59.929Z,59.21
2023-05-25T07:36:03.423Z,58.31
2023-05-25T07:39:07.234Z,58.56
2023-05-25T07:42:11.377Z,57.56
2023-05-25T07:45:14.270Z,57.40
2023-05-25T07:48:17.420Z,57.38
2023-05-25T07:51:23.601Z,56.95
2023-05-25T07:54:27.444Z,57.79
2023-05-25T07:57:30.802Z,56.22
2023-05-25T08:00:34.029Z,56.76
2023-05-25T08:03:48.774Z,56.01
2023-05-25T08:06:52.604Z,56.31
2023-05-25T08:09:55.582Z,56.11
2023-05-25T08:12:59.653Z,55.98
2023-05-25T08:16:03.213Z,55.10
2023-05-25T08:19:06.616Z,56.34
2023-05-25T08:22:09.938Z,54.92
2023-05-25T08:25:13.009Z,55.28
2023-05-25T08:28:16.133Z,56.53
2023-05-25T08:31:19.241Z,55.91
2023-05-25T08:34:22.796Z,55.48
2023-05-25T08:37:26.373Z,56.25
2023-05-25T08:40:29.957Z,57.45
2023-05-25T08:43:34.222Z,57.47
2023-05-25T08:46:38.018Z,56.87
2023-05-25T08:49:44.071Z,57.33
2023-05-25T08:52:51.988Z,59.46
2023-05-25T08:55:56.739Z,61.30
2023-05-25T08:59:10.349Z,57.02
2023-05-25T09:02:31.079Z,57.96
2023-05-25T09:05:38.219Z,60.32
2023-05-25T09:08:41.530Z,59.98
2023-05-25T09:11:47.231Z,59.93
2023-05-25T09:14:51.065Z,58.43
2023-05-25T09:17:56.791Z,59.60
2023-05-25T09:21:02.305Z,58.45
2023-05-25T09:24:06.126Z,57.64
2023-05-25T09:27:12.270Z,60.35
2023-05-25T09:30:16.551Z,59.23
2023-05-25T09:33:22.577Z,55.69
2023-05-25T09:36:26.763Z,59.70
2023-05-25T09:39:30.859Z,57.24
2023-05-25T09:42:34.217Z,56.99
2023-05-25T09:45:38.454Z,56.40
2023-05-25T09:48:43.976Z,57.64
2023-05-25T09:51:50.792Z,58.27
2023-05-25T09:54:55.069Z,58.56
2023-05-25T09:57:58.531Z,58.91
2023-05-25T10:01:01.799Z,57.53
2023-05-25T10:04:10.351Z,57.98
2023-05-25T10:07:13.918Z,55.44
2023-05-25T10:10:17.268Z,57.88
2023-05-25T10:13:25.364Z,58.74
2023-05-25T10:16:32.293Z,57.30
2023-05-25T10:19:43.276Z,56.79
2023-05-25T10:22:57.247Z,54.48
2023-05-25T10:26:03.521Z,55.89
2023-05-25T10:29:11.309Z,55.89
2023-05-25T10:32:16.987Z,55.50
2023-05-25T10:35:21.632Z,55.18
2023-05-25T10:38:31.355Z,55.86
2023-05-25T10:41:34.503Z,58.28
2023-05-25T10:44:39.032Z,58.82
2023-05-25T10:47:43.096Z,55.17
2023-05-25T10:50:53.070Z,56.69
2023-05-25T10:54:02.345Z,56.94
2023-05-25T10:57:14.705Z,55.27
2023-05-25T11:00:19.672Z,55.67
2023-05-25T11:03:23.016Z,56.22
2023-05-25T11:06:40.561Z,57.67
2023-05-25T11:09:55.662Z,57.98
2023-05-25T11:13:24.723Z,56.71
2023-05-25T11:16:40.278Z,52.90
2023-05-25T11:19:44.276Z,52.65
2023-05-25T11:22:52.415Z,54.39
2023-05-25T11:26:06.843Z,52.55
2023-05-25T11:29:15.053Z,50.92
2023-05-25T11:32:18.780Z,51.64
2023-05-25T11:35:22.149Z,51.06
2023-05-25T11:38:25.669Z,51.01
2023-05-25T11:41:29.446Z,52.25
2023-05-25T11:44:34.695Z,53.88
2023-05-25T11:47:38.431Z,54.06
2023-05-25T11:50:41.686Z,54.35
2023-05-25T11:53:46.040Z,57.26
2023-05-25T11:56:49.374Z,59.25
2023-05-25T11:59:57.981Z,57.58
2023-05-25T12:03:01.278Z,57.25
2023-05-25T12:06:05.471Z,56.63
2023-05-25T12:09:15.728Z,55.57
2023-05-25T12:12:19.842Z,52.57
2023-05-25T12:15:24.855Z,54.31
2023-05-25T12:18:29.177Z,56.76
2023-05-25T12:21:32.635Z,55.82
2023-05-25T12:24:36.097Z,57.43
2023-05-25T12:27:40.363Z,55.77
2023-05-25T12:30:43.789Z,53.27
2023-05-25T12:33:47.090Z,52.65
2023-05-25T12:36:52.606Z,52.46
2023-05-25T12:39:56.040Z,52.10
2023-05-25T12:42:59.968Z,51.56
2023-05-25T12:46:03.526Z,54.11
2023-05-25T12:49:25.169Z,53.64
2023-05-25T12:52:39.485Z,52.24
2023-05-25T12:55:42.439Z,52.77
2023-05-25T12:58:45.745Z,52.98
2023-05-25T13:01:49.055Z,53.29
2023-05-25T13:04:52.333Z,54.33
2023-05-25T13:07:57.627Z,54.06
2023-05-25T13:11:01.453Z,52.08
2023-05-25T13:14:04.891Z,52.72
2023-05-25T13:17:08.063Z,53.27
2023-05-25T13:20:23.610Z,51.99
2023-05-25T13:23:26.977Z,53.36
2023-05-25T13:26:30.009Z,55.49
2023-05-25T13:29:33.747Z,51.72
2023-05-25T13:32:37.189Z,50.76
2023-05-25T13:35:58.245Z,50.58
2023-05-25T13:39:02.803Z,52.96
2023-05-25T13:42:07.780Z,56.84
2023-05-25T13:45:31.370Z,54.37
2023-05-25T13:48:54.489Z,54.60
2023-05-25T13:52:18.117Z,53.87
2023-05-25T13:55:41.323Z,51.64
2023-05-25T13:58:44.511Z,53.38
2023-05-25T14:01:48.375Z,53.66
2023-05-25T14:04:51.945Z,51.54
2023-05-25T14:07:56.503Z,52.45
2023-05-25T14:10:59.753Z,50.45
2023-05-25T14:14:04.066Z,50.17
2023-05-25T14:17:07.830Z,51.24
2023-05-25T14:20:16.324Z,50.30
2023-05-25T14:23:19.855Z,51.33
2023-05-25T14:26:23.494Z,52.42
2023-05-25T14:29:26.782Z,51.34
2023-05-25T14:32:30.671Z,51.49
2023-05-25T14:35:34.109Z,51.43
2023-05-25T14:38:37.573Z,50.46
2023-05-25T14:41:41.180Z,50.97
2023-05-25T14:44:44.577Z,50.46
2023-05-25T14:47:48.293Z,49.30
2023-05-25T14:50:52.138Z,49.64
2023-05-25T14:53:55.514Z,49.16
2023-05-25T14:56:58.955Z,49.84
2023-05-25T15:00:03.437Z,52.19
2023-05-25T15:03:06.512Z,52.57
2023-05-25T15:06:09.757Z,52.16
2023-05-25T15:09:14.521Z,50.65
2023-05-25T15:12:17.587Z,50.21
2023-05-25T15:15:20.654Z,51.07
2023-05-25T15:18:24.077Z,51.08
2023-05-25T15:21:27.346Z,50.11
2023-05-25T15:24:30.512Z,49.55
2023-05-25T15:27:35.001Z,49.79
2023-05-25T15:30:38.429Z,49.89
2023-05-25T15:33:54.182Z,50.11
2023-05-25T15:37:00.535Z,51.32
2023-05-25T15:40:03.758Z,50.72
2023-05-25T15:43:06.983Z,49.70
2023-05-25T15:46:10.537Z,50.02
2023-05-25T15:49:13.734Z,51.27
2023-05-25T15:52:17.185Z,51.48
2023-05-25T15:55:20.863Z,50.69
2023-05-25T15:58:23.906Z,51.52
2023-05-25T16:01:26.984Z,52.88
2023-05-25T16:04:30.211Z,53.52
2023-05-25T16:07:33.878Z,53.35
2023-05-25T16:10:37.069Z,53.71
2023-05-25T16:13:40.005Z,53.76
2023-05-25T16:16:43.140Z,54.64
2023-05-25T16:19:47.605Z,53.16
2023-05-25T16:22:50.763Z,53.72
2023-05-25T16:25:53.925Z,53.31
2023-05-25T16:28:57.180Z,53.79
2023-05-25T16:32:00.697Z,53.79
2023-05-25T16:35:04.059Z,54.97
2023-05-25T16:38:07.121Z,56.15
2023-05-25T16:41:11.006Z,55.74
2023-05-25T16:44:15.598Z,56.24
2023-05-25T16:47:19.544Z,56.50
2023-05-25T16:50:22.683Z,56.44
2023-05-25T16:53:25.777Z,56.84
2023-05-25T16:56:29.807Z,56.90
2023-05-25T16:59:32.858Z,57.95
2023-05-25T17:02:36.025Z,58.11
2023-05-25T17:05:39.275Z,57.90
2023-05-25T17:08:42.489Z,57.83
2023-05-25T17:11:45.446Z,58.18
2023-05-25T17:14:48.597Z,58.38
2023-05-25T17:17:51.635Z,57.90
2023-05-25T17:20:55.299Z,58.83
2023-05-25T17:23:58.165Z,59.04
2023-05-25T17:27:01.869Z,58.53
2023-05-25T17:30:05.324Z,58.85
2023-05-25T17:33:09.464Z,58.44
2023-05-25T17:36:12.464Z,58.44
2023-05-25T17:39:15.824Z,59.23
2023-05-25T17:42:19.033Z,59.08
2023-05-25T17:45:22.280Z,59.61
2023-05-25T17:48:26.148Z,60.50
2023-05-25T17:51:29.626Z,60.69
2023-05-25T17:54:32.936Z,60.69
2023-05-25T17:57:36.451Z,60.53
2023-05-25T18:00:39.832Z,60.90
2023-05-25T18:03:43.396Z,60.72
2023-05-25T18:06:49.998Z,62.29
2023-05-25T18:09:53.349Z,61.53
2023-05-25T18:12:56.609Z,62.13
2023-05-25T18:15:59.999Z,62.72
2023-05-25T18:19:03.296Z,62.23
2023-05-25T18:22:06.736Z,62.35
2023-05-25T18:25:10.093Z,62.84
2023-05-25T18:28:15.308Z,62.66
2023-05-25T18:31:18.514Z,63.23
2023-05-25T18:34:21.550Z,63.47
2023-05-25T18:37:24.783Z,63.22
2023-05-25T18:40:27.986Z,63.72
2023-05-25T18:43:30.872Z,64.67
2023-05-25T18:46:34.069Z,64.06
2023-05-25T18:49:38.136Z,64.40
2023-05-25T18:52:41.738Z,65.16
2023-05-25T18:55:44.823Z,65.61
2023-05-25T18:58:52.452Z,65.54
2023-05-25T19:01:58.674Z,66.64
2023-05-25T19:05:02.147Z,66.70
2023-05-25T19:08:05.663Z,67.00
2023-05-25T19:11:08.897Z,67.39
2023-05-25T19:14:11.966Z,67.97
2023-05-25T19:17:15.088Z,68.42
2023-05-25T19:20:18.218Z,69.27
2023-05-25T19:23:21.721Z,68.93
2023-05-25T19:26:25.334Z,70.24
2023-05-25T19:29:28.736Z,69.44
2023-05-25T19:32:32.059Z,70.02
2023-05-25T19:35:35.370Z,69.64
2023-05-25T19:38:41.963Z,69.48
2023-05-25T19:41:45.896Z,70.22
2023-05-25T19:44:49.190Z,69.26
2023-05-25T19:47:55.302Z,69.65
2023-05-25T19:50:59.391Z,69.61
2023-05-25T19:54:02.552Z,69.85
2023-05-25T19:57:06.930Z,69.85
2023-05-25T20:00:21.130Z,69.70
2023-05-25T20:03:29.352Z,69.66
2023-05-25T20:06:32.979Z,69.04
2023-05-25T20:09:38.644Z,69.74
2023-05-25T20:12:42.008Z,70.33
2023-05-25T20:15:45.287Z,71.31
2023-05-25T20:18:48.400Z,72.48
2023-05-25T20:21:52.127Z,72.68
2023-05-25T20:24:58.402Z,73.37
2023-05-25T20:28:01.626Z,73.59
2023-05-25T20:31:06.543Z,73.59
2023-05-25T20:34:09.612Z,73.48
2023-05-25T20:37:12.801Z,72.82
2023-05-25T20:40:16.066Z,73.40
2023-05-25T20:43:19.186Z,74.38
2023-05-25T20:46:22.468Z,74.33
2023-05-25T20:49:26.158Z,74.00
2023-05-25T20:52:29.548Z,74.64
2023-05-25T20:55:32.922Z,75.04
2023-05-25T20:58:37.597Z,74.96
2023-05-25T21:01:40.545Z,73.78
2023-05-25T21:04:43.936Z,74.35
2023-05-25T21:07:46.761Z,73.60
2023-05-25T21:10:49.841Z,74.04
2023-05-25T21:13:53.335Z,73.59
2023-05-25T21:16:56.649Z,73.13
2023-05-25T21:19:59.750Z,73.20
2023-05-25T21:23:02.991Z,73.18
2023-05-25T21:26:06.229Z,72.94
2023-05-25T21:29:09.389Z,72.44
2023-05-25T21:32:12.783Z,72.24
2023-05-25T21:35:18.278Z,71.70
2023-05-25T21:38:21.658Z,71.69
2023-05-25T21:41:26.677Z,71.73
2023-05-25T21:44:29.799Z,71.81
2023-05-25T21:47:33.066Z,71.35
2023-05-25T21:50:36.955Z,72.19
2023-05-25T21:53:39.908Z,71.67
2023-05-25T21:56:43.406Z,71.73
2023-05-25T21:59:47.110Z,71.72
2023-05-25T22:02:50.740Z,71.71
2023-05-25T22:05:54.032Z,71.09
2023-05-25T22:08:57.459Z,72.22
2023-05-25T22:12:02.710Z,72.27
2023-05-25T22:15:07.310Z,72.27
2023-05-25T22:18:10.567Z,72.21
2023-05-25T22:21:15.094Z,72.91
2023-05-25T22:24:18.259Z,72.69
2023-05-25T22:27:21.466Z,72.47
2023-05-25T22:30:24.654Z,72.96
2023-05-25T22:33:27.932Z,73.04
2023-05-25T22:36:31.370Z,73.37
2023-05-25T22:39:34.593Z,72.64
2023-05-25T22:42:37.591Z,72.88
2023-05-25T22:45:41.106Z,73.71
2023-05-25T22:48:44.009Z,72.66
2023-05-25T22:51:47.411Z,72.26
2023-05-25T22:54:50.575Z,72.45
2023-05-25T22:57:53.671Z,72.53
2023-05-25T23:00:57.517Z,72.32
2023-05-25T23:04:00.855Z,72.61
2023-05-25T23:07:04.544Z,72.92
2023-05-25T23:10:08.576Z,73.40
2023-05-25T23:13:12.451Z,71.70
2023-05-25T23:16:18.900Z,71.88
2023-05-25T23:19:23.581Z,71.99
2023-05-25T23:22:26.589Z,72.45
2023-05-25T23:25:29.850Z,73.42
2023-05-25T23:28:33.262Z,71.79
2023-05-25T23:31:37.027Z,71.43
2023-05-25T23:34:40.189Z,71.87
2023-05-25T23:37:44.168Z,72.12
2023-05-25T23:40:47.369Z,71.96
2023-05-25T23:43:50.679Z,72.12
2023-05-25T23:46:54.058Z,71.69
2023-05-25T23:49:58.555Z,71.99
2023-05-25T23:53:02.173Z,71.66
2023-05-25T23:56:05.459Z,71.53
2023-05-25T23:59:08.730Z,71.74
